sensor_id;sensor_type;location;lat;lon;timestamp;pressure;altitude;pressure_sealevel;temperature;humidity
74524;BME280;63074;44.696;10.358;2023-03-14T06:13:29;98818.75;;;9.61;100.00
74524;BME280;63074;44.696;10.358;2023-03-14T06:15:55;98807.00;;;9.67;100.00
74524;BME280;63074;44.696;10.358;2023-03-14T06:18:21;98795.91;;;9.54;100.00
74524;BME280;63074;44.696;10.358;2023-03-14T06:20:47;98803.00;;;9.33;100.00
74524;BME280;63074;44.696;10.358;2023-03-14T06:23:14;98807.06;;;9.35;100.00
74524;BME280;63074;44.696;10.358;2023-03-14T06:25:40;98819.53;;;9.57;100.00
74524;BME280;63074;44.696;10.358;2023-03-14T06:28:06;98804.91;;;9.74;100.00
74524;BME280;63074;44.696;10.358;2023-03-14T06:30:32;98797.19;;;9.93;100.00
74524;BME280;63074;44.696;10.358;2023-03-14T06:32:58;98799.72;;;10.10;100.00
74524;BME280;63074;44.696;10.358;2023-03-14T06:35:24;98788.97;;;10.15;100.00
74524;BME280;63074;44.696;10.358;2023-03-14T06:37:51;98789.59;;;10.27;100.00
74524;BME280;63074;44.696;10.358;2023-03-14T06:40:17;98787.75;;;10.38;100.00
74524;BME280;63074;44.696;10.358;2023-03-14T06:42:45;98788.00;;;10.36;100.00
74524;BME280;63074;44.696;10.358;2023-03-14T06:45:12;98790.63;;;10.21;100.00
74524;BME280;63074;44.696;10.358;2023-03-14T06:47:38;98778.28;;;10.20;100.00
74524;BME280;63074;44.696;10.358;2023-03-14T06:50:06;98770.47;;;10.19;100.00
74524;BME280;63074;44.696;10.358;2023-03-14T06:52:32;98783.16;;;10.28;100.00
74524;BME280;63074;44.696;10.358;2023-03-14T06:54:58;98788.28;;;10.35;100.00
74524;BME280;63074;44.696;10.358;2023-03-14T06:57:25;98782.63;;;10.31;100.00
74524;BME280;63074;44.696;10.358;2023-03-14T06:59:51;98763.81;;;10.26;100.00
74524;BME280;63074;44.696;10.358;2023-03-14T07:02:17;98756.59;;;10.32;100.00
74524;BME280;63074;44.696;10.358;2023-03-14T07:04:43;98761.66;;;10.28;100.00
74524;BME280;63074;44.696;10.358;2023-03-14T07:07:09;98759.03;;;10.38;100.00
74524;BME280;63074;44.696;10.358;2023-03-14T07:09:36;98762.78;;;10.47;100.00
74524;BME280;63074;44.696;10.358;2023-03-14T07:12:03;98772.16;;;10.30;100.00
74524;BME280;63074;44.696;10.358;2023-03-14T07:14:30;98776.00;;;9.92;100.00
74524;BME280;63074;44.696;10.358;2023-03-14T07:16:56;98776.06;;;10.02;100.00
74524;BME280;63074;44.696;10.358;2023-03-14T07:19:22;98777.41;;;10.14;100.00
74524;BME280;63074;44.696;10.358;2023-03-14T07:21:48;98776.97;;;10.28;100.00
74524;BME280;63074;44.696;10.358;2023-03-14T07:24:14;98764.81;;;10.15;100.00
74524;BME280;63074;44.696;10.358;2023-03-14T07:26:41;98767.50;;;10.15;100.00
74524;BME280;63074;44.696;10.358;2023-03-14T07:29:07;98772.09;;;10.20;100.00
74524;BME280;63074;44.696;10.358;2023-03-14T07:31:33;98772.16;;;10.30;100.00
74524;BME280;63074;44.696;10.358;2023-03-14T07:33:59;98774.66;;;10.67;100.00
74524;BME280;63074;44.696;10.358;2023-03-14T07:36:26;98768.22;;;10.88;100.00
74524;BME280;63074;44.696;10.358;2023-03-14T07:38:52;98760.16;;;10.93;100.00
74524;BME280;63074;44.696;10.358;2023-03-14T07:41:18;98755.31;;;10.85;100.00
74524;BME280;63074;44.696;10.358;2023-03-14T07:43:46;98740.53;;;10.88;100.00
74524;BME280;63074;44.696;10.358;2023-03-14T07:46:12;98740.25;;;11.09;100.00
74524;BME280;63074;44.696;10.358;2023-03-14T07:48:39;98748.84;;;11.16;100.00
74524;BME280;63074;44.696;10.358;2023-03-14T07:51:05;98746.16;;;11.06;100.00
74524;BME280;63074;44.696;10.358;2023-03-14T07:53:31;98752.34;;;10.92;100.00
74524;BME280;63074;44.696;10.358;2023-03-14T07:55:57;98747.50;;;11.04;100.00
74524;BME280;63074;44.696;10.358;2023-03-14T07:58:24;98735.41;;;11.22;100.00
74524;BME280;63074;44.696;10.358;2023-03-14T08:00:51;98734.81;;;11.40;100.00
74524;BME280;63074;44.696;10.358;2023-03-14T08:03:18;98733.75;;;11.46;100.00
74524;BME280;63074;44.696;10.358;2023-03-14T08:05:48;98738.38;;;10.79;100.00
74524;BME280;63074;44.696;10.358;2023-03-14T08:08:15;98733.53;;;11.12;100.00
74524;BME280;63074;44.696;10.358;2023-03-14T08:10:41;98734.28;;;11.38;100.00
74524;BME280;63074;44.696;10.358;2023-03-14T08:13:08;98732.94;;;11.40;100.00
74524;BME280;63074;44.696;10.358;2023-03-14T08:15:34;98729.66;;;11.64;100.00
74524;BME280;63074;44.696;10.358;2023-03-14T08:18:01;98728.84;;;11.63;100.00
74524;BME280;63074;44.696;10.358;2023-03-14T08:20:28;98730.41;;;11.84;100.00
74524;BME280;63074;44.696;10.358;2023-03-14T08:22:59;98734.34;;;12.07;100.00
74524;BME280;63074;44.696;10.358;2023-03-14T08:25:27;98721.19;;;12.45;100.00
74524;BME280;63074;44.696;10.358;2023-03-14T08:27:53;98719.41;;;12.30;100.00
74524;BME280;63074;44.696;10.358;2023-03-14T08:30:21;98723.88;;;12.45;100.00
74524;BME280;63074;44.696;10.358;2023-03-14T08:32:47;98722.00;;;12.45;100.00
74524;BME280;63074;44.696;10.358;2023-03-14T08:35:14;98711.91;;;12.22;100.00
74524;BME280;63074;44.696;10.358;2023-03-14T08:37:40;98715.25;;;12.48;100.00
74524;BME280;63074;44.696;10.358;2023-03-14T08:40:08;98730.84;;;12.51;100.00
74524;BME280;63074;44.696;10.358;2023-03-14T08:42:36;98729.47;;;12.59;100.00
74524;BME280;63074;44.696;10.358;2023-03-14T08:45:03;98733.19;;;12.68;100.00
74524;BME280;63074;44.696;10.358;2023-03-14T08:47:30;98731.72;;;12.80;100.00
74524;BME280;63074;44.696;10.358;2023-03-14T08:49:56;98724.75;;;13.08;100.00
74524;BME280;63074;44.696;10.358;2023-03-14T08:52:23;98726.69;;;13.03;100.00
74524;BME280;63074;44.696;10.358;2023-03-14T08:54:49;98723.31;;;12.87;100.00
74524;BME280;63074;44.696;10.358;2023-03-14T08:57:15;98725.78;;;12.83;100.00
74524;BME280;63074;44.696;10.358;2023-03-14T08:59:41;98716.88;;;12.83;100.00
74524;BME280;63074;44.696;10.358;2023-03-14T09:02:10;98725.31;;;12.71;100.00
74524;BME280;63074;44.696;10.358;2023-03-14T09:04:37;98732.50;;;12.86;100.00
74524;BME280;63074;44.696;10.358;2023-03-14T09:07:03;98731.22;;;13.07;100.00
74524;BME280;63074;44.696;10.358;2023-03-14T09:09:29;98729.06;;;13.09;100.00
74524;BME280;63074;44.696;10.358;2023-03-14T09:11:56;98731.47;;;13.11;100.00
74524;BME280;63074;44.696;10.358;2023-03-14T09:14:23;98738.25;;;13.03;100.00
74524;BME280;63074;44.696;10.358;2023-03-14T09:16:49;98730.09;;;13.13;100.00
74524;BME280;63074;44.696;10.358;2023-03-14T09:19:16;98733.59;;;13.19;100.00
74524;BME280;63074;44.696;10.358;2023-03-14T09:21:42;98724.97;;;13.17;100.00
74524;BME280;63074;44.696;10.358;2023-03-14T09:24:09;98726.09;;;13.06;100.00
74524;BME280;63074;44.696;10.358;2023-03-14T09:26:35;98745.28;;;13.04;100.00
74524;BME280;63074;44.696;10.358;2023-03-14T09:29:01;98744.41;;;12.80;100.00
74524;BME280;63074;44.696;10.358;2023-03-14T09:31:27;98760.22;;;12.52;100.00
74524;BME280;63074;44.696;10.358;2023-03-14T09:33:54;98772.94;;;12.86;100.00
74524;BME280;63074;44.696;10.358;2023-03-14T09:36:21;98760.50;;;12.90;100.00
74524;BME280;63074;44.696;10.358;2023-03-14T09:38:47;98769.63;;;12.94;100.00
74524;BME280;63074;44.696;10.358;2023-03-14T09:41:35;98775.41;;;13.11;100.00
74524;BME280;63074;44.696;10.358;2023-03-14T09:44:08;98777.56;;;12.75;100.00
74524;BME280;63074;44.696;10.358;2023-03-14T09:46:38;98784.59;;;12.27;100.00
74524;BME280;63074;44.696;10.358;2023-03-14T09:49:37;98787.31;;;12.22;100.00
74524;BME280;63074;44.696;10.358;2023-03-14T09:52:05;98786.84;;;12.10;100.00
74524;BME280;63074;44.696;10.358;2023-03-14T09:54:39;98783.94;;;12.50;100.00
74524;BME280;63074;44.696;10.358;2023-03-14T09:57:12;98784.59;;;12.32;100.00
74524;BME280;63074;44.696;10.358;2023-03-14T09:59:41;98780.06;;;12.17;100.00
74524;BME280;63074;44.696;10.358;2023-03-14T10:02:20;98775.59;;;11.93;100.00
74524;BME280;63074;44.696;10.358;2023-03-14T10:04:49;98787.41;;;12.02;100.00
74524;BME280;63074;44.696;10.358;2023-03-14T10:07:18;98785.00;;;12.00;100.00
74524;BME280;63074;44.696;10.358;2023-03-14T10:09:51;98793.22;;;12.29;100.00
74524;BME280;63074;44.696;10.358;2023-03-14T10:12:18;98783.66;;;12.03;100.00
74524;BME280;63074;44.696;10.358;2023-03-14T10:14:52;98780.66;;;12.09;100.00
74524;BME280;63074;44.696;10.358;2023-03-14T10:17:20;98775.75;;;12.16;100.00
74524;BME280;63074;44.696;10.358;2023-03-14T10:22:20;98779.72;;;12.39;100.00
74524;BME280;63074;44.696;10.358;2023-03-14T10:24:55;98770.44;;;12.56;100.00
74524;BME280;63074;44.696;10.358;2023-03-14T10:27:31;98780.84;;;12.28;100.00
74524;BME280;63074;44.696;10.358;2023-03-14T10:30:13;98775.22;;;12.20;100.00
74524;BME280;63074;44.696;10.358;2023-03-14T10:32:46;98777.22;;;12.48;100.00
74524;BME280;63074;44.696;10.358;2023-03-14T10:38:02;98750.31;;;12.82;100.00
74524;BME280;63074;44.696;10.358;2023-03-14T10:40:34;98729.47;;;13.27;100.00
74524;BME280;63074;44.696;10.358;2023-03-14T10:43:05;98742.63;;;12.65;100.00
74524;BME280;63074;44.696;10.358;2023-03-14T10:45:36;98721.16;;;13.47;100.00
74524;BME280;63074;44.696;10.358;2023-03-14T10:50:53;98708.50;;;13.18;100.00
74524;BME280;63074;44.696;10.358;2023-03-14T10:53:20;98695.97;;;13.57;100.00
74524;BME280;63074;44.696;10.358;2023-03-14T10:55:46;98683.09;;;13.48;100.00
74524;BME280;63074;44.696;10.358;2023-03-14T10:58:29;98669.63;;;14.29;100.00
74524;BME280;63074;44.696;10.358;2023-03-14T11:01:04;98668.91;;;13.38;100.00
74524;BME280;63074;44.696;10.358;2023-03-14T11:03:36;98660.66;;;13.53;100.00
74524;BME280;63074;44.696;10.358;2023-03-14T11:06:13;98665.03;;;14.10;100.00
74524;BME280;63074;44.696;10.358;2023-03-14T11:11:26;98659.38;;;13.69;100.00
74524;BME280;63074;44.696;10.358;2023-03-14T11:13:58;98660.25;;;13.41;100.00
74524;BME280;63074;44.696;10.358;2023-03-14T11:16:34;98661.03;;;13.17;100.00
74524;BME280;63074;44.696;10.358;2023-03-14T11:20:24;98656.31;;;13.28;100.00
74524;BME280;63074;44.696;10.358;2023-03-14T11:30:57;98664.25;;;13.43;100.00
74524;BME280;63074;44.696;10.358;2023-03-14T11:33:38;98659.22;;;13.37;100.00
74524;BME280;63074;44.696;10.358;2023-03-14T11:36:10;98655.47;;;13.99;100.00
74524;BME280;63074;44.696;10.358;2023-03-14T11:38:43;98649.53;;;14.16;100.00
74524;BME280;63074;44.696;10.358;2023-03-14T11:43:55;98644.81;;;14.78;100.00
74524;BME280;63074;44.696;10.358;2023-03-14T11:46:34;98637.78;;;15.50;100.00
74524;BME280;63074;44.696;10.358;2023-03-14T11:49:11;98627.16;;;15.81;100.00
74524;BME280;63074;44.696;10.358;2023-03-14T11:51:41;98621.44;;;16.41;100.00
74524;BME280;63074;44.696;10.358;2023-03-14T11:54:29;98604.13;;;15.57;100.00
74524;BME280;63074;44.696;10.358;2023-03-14T11:57:05;98602.47;;;15.56;100.00
74524;BME280;63074;44.696;10.358;2023-03-14T12:02:21;98599.16;;;17.06;100.00
74524;BME280;63074;44.696;10.358;2023-03-14T12:07:39;98591.56;;;17.74;100.00
74524;BME280;63074;44.696;10.358;2023-03-14T12:10:10;98591.94;;;17.90;100.00
74524;BME280;63074;44.696;10.358;2023-03-14T12:12:36;98592.03;;;18.53;100.00
74524;BME280;63074;44.696;10.358;2023-03-14T12:15:04;98588.72;;;16.38;100.00
74524;BME280;63074;44.696;10.358;2023-03-14T12:17:37;98590.25;;;15.17;100.00
74524;BME280;63074;44.696;10.358;2023-03-14T12:22:56;98591.13;;;16.39;100.00
74524;BME280;63074;44.696;10.358;2023-03-14T12:25:29;98578.66;;;18.05;100.00
74524;BME280;63074;44.696;10.358;2023-03-14T12:33:11;98576.69;;;18.75;100.00
74524;BME280;63074;44.696;10.358;2023-03-14T12:35:47;98579.84;;;19.23;100.00
74524;BME280;63074;44.696;10.358;2023-03-14T12:41:27;98593.94;;;16.57;100.00
74524;BME280;63074;44.696;10.358;2023-03-14T12:43:55;98588.84;;;16.10;100.00
74524;BME280;63074;44.696;10.358;2023-03-14T12:46:24;98593.66;;;16.13;100.00
74524;BME280;63074;44.696;10.358;2023-03-14T12:49:05;98593.03;;;16.39;100.00
74524;BME280;63074;44.696;10.358;2023-03-14T12:51:39;98594.44;;;18.72;100.00
74524;BME280;63074;44.696;10.358;2023-03-14T12:57:22;98577.44;;;16.67;100.00
74524;BME280;63074;44.696;10.358;2023-03-14T12:59:56;98584.25;;;18.00;100.00
74524;BME280;63074;44.696;10.358;2023-03-14T13:02:26;98577.25;;;18.89;100.00
74524;BME280;63074;44.696;10.358;2023-03-14T13:17:49;98583.69;;;20.77;94.70
74524;BME280;63074;44.696;10.358;2023-03-14T13:22:49;98583.03;;;22.02;85.30
74524;BME280;63074;44.696;10.358;2023-03-14T13:25:16;98570.97;;;21.78;84.70
74524;BME280;63074;44.696;10.358;2023-03-14T13:27:44;98570.13;;;22.42;81.04
74524;BME280;63074;44.696;10.358;2023-03-14T13:30:21;98568.00;;;21.71;78.58
74524;BME280;63074;44.696;10.358;2023-03-14T13:32:48;98578.78;;;22.44;75.85
74524;BME280;63074;44.696;10.358;2023-03-14T13:35:23;98579.94;;;20.81;92.62
74524;BME280;63074;44.696;10.358;2023-03-14T13:38:01;98572.53;;;23.85;72.02
74524;BME280;63074;44.696;10.358;2023-03-14T13:40:32;98566.16;;;17.96;100.00
74524;BME280;63074;44.696;10.358;2023-03-14T13:43:14;98565.06;;;17.88;100.00
74524;BME280;63074;44.696;10.358;2023-03-14T13:48:19;98570.41;;;15.49;100.00
74524;BME280;63074;44.696;10.358;2023-03-14T13:51:04;98561.63;;;16.38;100.00
74524;BME280;63074;44.696;10.358;2023-03-14T13:53:32;98563.69;;;17.42;100.00
74524;BME280;63074;44.696;10.358;2023-03-14T13:56:10;98559.06;;;17.43;100.00
74524;BME280;63074;44.696;10.358;2023-03-14T13:58:38;98562.47;;;18.35;100.00
74524;BME280;63074;44.696;10.358;2023-03-14T14:01:22;98556.09;;;19.03;100.00
74524;BME280;63074;44.696;10.358;2023-03-14T14:03:53;98559.94;;;17.78;100.00
74524;BME280;63074;44.696;10.358;2023-03-14T14:06:35;98560.88;;;17.91;100.00
74524;BME280;63074;44.696;10.358;2023-03-14T14:09:14;98551.88;;;17.47;100.00
74524;BME280;63074;44.696;10.358;2023-03-14T14:14:57;98552.84;;;16.94;100.00
74524;BME280;63074;44.696;10.358;2023-03-14T14:17:19;98551.22;;;16.62;100.00
74524;BME280;63074;44.696;10.358;2023-03-14T14:19:47;98547.31;;;16.68;100.00
74524;BME280;63074;44.696;10.358;2023-03-14T14:22:14;98544.59;;;16.24;100.00
74524;BME280;63074;44.696;10.358;2023-03-14T14:24:41;98552.81;;;16.10;100.00
74524;BME280;63074;44.696;10.358;2023-03-14T14:27:13;98547.75;;;15.95;100.00
74524;BME280;63074;44.696;10.358;2023-03-14T14:29:40;98540.00;;;16.55;100.00
74524;BME280;63074;44.696;10.358;2023-03-14T14:32:13;98536.38;;;16.60;100.00
74524;BME280;63074;44.696;10.358;2023-03-14T14:37:27;98539.34;;;17.20;100.00
74524;BME280;63074;44.696;10.358;2023-03-14T14:39:59;98542.63;;;17.57;100.00
74524;BME280;63074;44.696;10.358;2023-03-14T14:42:33;98545.75;;;17.33;100.00
74524;BME280;63074;44.696;10.358;2023-03-14T14:45:00;98543.84;;;17.25;100.00
74524;BME280;63074;44.696;10.358;2023-03-14T14:47:29;98540.94;;;17.78;100.00
74524;BME280;63074;44.696;10.358;2023-03-14T14:49:58;98532.69;;;16.86;100.00
74524;BME280;63074;44.696;10.358;2023-03-14T14:52:40;98525.34;;;17.44;100.00
74524;BME280;63074;44.696;10.358;2023-03-14T14:55:17;98529.84;;;17.48;100.00
74524;BME280;63074;44.696;10.358;2023-03-14T14:57:52;98521.06;;;17.51;100.00
74524;BME280;63074;44.696;10.358;2023-03-14T15:00:24;98525.91;;;17.72;100.00
74524;BME280;63074;44.696;10.358;2023-03-14T15:02:58;98524.72;;;16.28;100.00
74524;BME280;63074;44.696;10.358;2023-03-14T15:05:27;98525.47;;;19.06;100.00
74524;BME280;63074;44.696;10.358;2023-03-14T15:07:55;98531.22;;;19.64;99.90
74524;BME280;63074;44.696;10.358;2023-03-14T15:10:24;98526.59;;;22.81;84.23
74524;BME280;63074;44.696;10.358;2023-03-14T15:12:51;98521.59;;;23.18;76.58
74524;BME280;63074;44.696;10.358;2023-03-14T15:15:18;98513.44;;;19.37;91.29
74524;BME280;63074;44.696;10.358;2023-03-14T15:17:44;98514.53;;;20.85;86.75
74524;BME280;63074;44.696;10.358;2023-03-14T15:20:13;98510.81;;;19.19;90.51
74524;BME280;63074;44.696;10.358;2023-03-14T15:22:42;98512.78;;;20.23;91.76
74524;BME280;63074;44.696;10.358;2023-03-14T15:25:09;98513.91;;;19.39;97.74
74524;BME280;63074;44.696;10.358;2023-03-14T15:27:36;98510.41;;;17.07;100.00
74524;BME280;63074;44.696;10.358;2023-03-14T15:30:05;98506.72;;;17.77;100.00
74524;BME280;63074;44.696;10.358;2023-03-14T15:32:32;98507.09;;;18.65;100.00
74524;BME280;63074;44.696;10.358;2023-03-14T15:34:58;98494.72;;;18.12;100.00
74524;BME280;63074;44.696;10.358;2023-03-14T15:37:26;98494.75;;;17.04;100.00
74524;BME280;63074;44.696;10.358;2023-03-14T15:39:52;98493.44;;;17.93;100.00
74524;BME280;63074;44.696;10.358;2023-03-14T15:42:18;98485.44;;;18.13;100.00
74524;BME280;63074;44.696;10.358;2023-03-14T15:44:44;98482.06;;;18.16;100.00
74524;BME280;63074;44.696;10.358;2023-03-14T15:47:11;98482.41;;;17.98;100.00
74524;BME280;63074;44.696;10.358;2023-03-14T15:49:37;98485.09;;;17.63;100.00
74524;BME280;63074;44.696;10.358;2023-03-14T15:52:03;98480.09;;;17.13;100.00
74524;BME280;63074;44.696;10.358;2023-03-14T15:54:29;98473.84;;;17.04;100.00
74524;BME280;63074;44.696;10.358;2023-03-14T15:56:56;98473.66;;;16.52;100.00
74524;BME280;63074;44.696;10.358;2023-03-14T15:59:23;98470.81;;;16.58;100.00
74524;BME280;63074;44.696;10.358;2023-03-14T16:01:49;98465.44;;;16.66;100.00
74524;BME280;63074;44.696;10.358;2023-03-14T16:04:16;98473.22;;;16.28;100.00
74524;BME280;63074;44.696;10.358;2023-03-14T16:06:43;98481.44;;;16.14;100.00
74524;BME280;63074;44.696;10.358;2023-03-14T16:09:13;98486.41;;;15.76;100.00
74524;BME280;63074;44.696;10.358;2023-03-14T16:11:40;98487.97;;;15.55;100.00
74524;BME280;63074;44.696;10.358;2023-03-14T16:14:06;98480.09;;;15.31;100.00
74524;BME280;63074;44.696;10.358;2023-03-14T16:16:33;98486.59;;;15.44;100.00
74524;BME280;63074;44.696;10.358;2023-03-14T16:18:59;98484.44;;;15.68;100.00
74524;BME280;63074;44.696;10.358;2023-03-14T16:21:25;98486.06;;;15.56;100.00
74524;BME280;63074;44.696;10.358;2023-03-14T16:23:51;98486.94;;;15.15;100.00
74524;BME280;63074;44.696;10.358;2023-03-14T16:26:19;98477.13;;;15.19;100.00
74524;BME280;63074;44.696;10.358;2023-03-14T16:28:47;98479.28;;;15.44;100.00
74524;BME280;63074;44.696;10.358;2023-03-14T16:31:16;98478.44;;;15.22;100.00
74524;BME280;63074;44.696;10.358;2023-03-14T16:33:43;98477.81;;;15.25;100.00
74524;BME280;63074;44.696;10.358;2023-03-14T16:36:11;98473.53;;;15.24;100.00
74524;BME280;63074;44.696;10.358;2023-03-14T16:38:40;98478.53;;;15.30;100.00
74524;BME280;63074;44.696;10.358;2023-03-14T16:41:16;98477.44;;;15.04;100.00
74524;BME280;63074;44.696;10.358;2023-03-14T16:43:43;98485.19;;;14.97;100.00
74524;BME280;63074;44.696;10.358;2023-03-14T16:46:16;98499.38;;;14.75;100.00
74524;BME280;63074;44.696;10.358;2023-03-14T16:48:43;98499.09;;;14.76;100.00
74524;BME280;63074;44.696;10.358;2023-03-14T16:51:10;98499.28;;;14.52;100.00
74524;BME280;63074;44.696;10.358;2023-03-14T16:53:36;98497.47;;;14.48;100.00
74524;BME280;63074;44.696;10.358;2023-03-14T16:56:02;98508.06;;;14.44;100.00
74524;BME280;63074;44.696;10.358;2023-03-14T16:58:29;98503.72;;;14.30;100.00
74524;BME280;63074;44.696;10.358;2023-03-14T17:00:56;98507.81;;;14.27;100.00
74524;BME280;63074;44.696;10.358;2023-03-14T17:03:23;98503.56;;;14.07;100.00
74524;BME280;63074;44.696;10.358;2023-03-14T17:05:51;98503.13;;;14.00;100.00
74524;BME280;63074;44.696;10.358;2023-03-14T17:08:19;98503.25;;;14.09;100.00
74524;BME280;63074;44.696;10.358;2023-03-14T17:10:45;98506.78;;;13.91;100.00
74524;BME280;63074;44.696;10.358;2023-03-14T17:13:12;98519.47;;;13.90;100.00
74524;BME280;63074;44.696;10.358;2023-03-14T17:15:42;98527.00;;;13.93;100.00
74524;BME280;63074;44.696;10.358;2023-03-14T17:18:09;98527.47;;;13.81;100.00
74524;BME280;63074;44.696;10.358;2023-03-14T17:20:35;98534.53;;;13.59;100.00
74524;BME280;63074;44.696;10.358;2023-03-14T17:23:01;98532.06;;;13.43;100.00
74524;BME280;63074;44.696;10.358;2023-03-14T17:25:27;98547.72;;;13.60;100.00
74524;BME280;63074;44.696;10.358;2023-03-14T17:27:53;98554.66;;;13.47;100.00
74524;BME280;63074;44.696;10.358;2023-03-14T17:30:20;98559.19;;;13.52;100.00
74524;BME280;63074;44.696;10.358;2023-03-14T17:32:46;98564.81;;;13.56;100.00
74524;BME280;63074;44.696;10.358;2023-03-14T17:35:12;98565.09;;;13.54;100.00
74524;BME280;63074;44.696;10.358;2023-03-14T17:37:38;98569.59;;;13.59;100.00
74524;BME280;63074;44.696;10.358;2023-03-14T17:40:05;98569.66;;;13.35;100.00
74524;BME280;63074;44.696;10.358;2023-03-14T17:42:31;98582.41;;;13.53;100.00
74524;BME280;63074;44.696;10.358;2023-03-14T17:44:57;98586.19;;;13.52;100.00
74524;BME280;63074;44.696;10.358;2023-03-14T17:47:23;98590.50;;;13.53;100.00
74524;BME280;63074;44.696;10.358;2023-03-14T17:49:50;98602.81;;;13.59;100.00
74524;BME280;63074;44.696;10.358;2023-03-14T17:52:16;98596.25;;;13.65;100.00
74524;BME280;63074;44.696;10.358;2023-03-14T17:54:42;98586.25;;;13.66;100.00
74524;BME280;63074;44.696;10.358;2023-03-14T17:57:08;98600.38;;;13.58;100.00
74524;BME280;63074;44.696;10.358;2023-03-14T17:59:34;98599.63;;;13.33;100.00
74524;BME280;63074;44.696;10.358;2023-03-14T18:02:00;98602.09;;;13.01;100.00
74524;BME280;63074;44.696;10.358;2023-03-14T18:04:27;98597.38;;;12.93;100.00
74524;BME280;63074;44.696;10.358;2023-03-14T18:06:53;98606.88;;;12.85;100.00
74524;BME280;63074;44.696;10.358;2023-03-14T18:09:19;98602.75;;;13.22;100.00
74524;BME280;63074;44.696;10.358;2023-03-14T18:11:46;98595.53;;;13.36;100.00
74524;BME280;63074;44.696;10.358;2023-03-14T18:14:13;98596.34;;;13.36;100.00
74524;BME280;63074;44.696;10.358;2023-03-14T18:16:41;98597.22;;;13.32;100.00
74524;BME280;63074;44.696;10.358;2023-03-14T18:19:10;98608.75;;;13.37;100.00
74524;BME280;63074;44.696;10.358;2023-03-14T18:21:36;98614.66;;;13.39;100.00
74524;BME280;63074;44.696;10.358;2023-03-14T18:24:05;98614.44;;;13.36;100.00
74524;BME280;63074;44.696;10.358;2023-03-14T18:26:31;98617.25;;;13.26;100.00
74524;BME280;63074;44.696;10.358;2023-03-14T18:28:57;98626.97;;;12.98;100.00
74524;BME280;63074;44.696;10.358;2023-03-14T18:31:23;98627.41;;;13.05;100.00
74524;BME280;63074;44.696;10.358;2023-03-14T18:33:51;98635.50;;;13.05;100.00
74524;BME280;63074;44.696;10.358;2023-03-14T18:36:20;98633.50;;;12.92;100.00
74524;BME280;63074;44.696;10.358;2023-03-14T18:38:47;98639.13;;;12.95;100.00
74524;BME280;63074;44.696;10.358;2023-03-14T18:41:17;98629.44;;;12.94;100.00
74524;BME280;63074;44.696;10.358;2023-03-14T18:43:45;98629.44;;;12.94;100.00
74524;BME280;63074;44.696;10.358;2023-03-14T18:46:11;98631.84;;;12.96;100.00
74524;BME280;63074;44.696;10.358;2023-03-14T18:48:38;98631.97;;;12.80;100.00
74524;BME280;63074;44.696;10.358;2023-03-14T18:51:08;98638.19;;;12.81;100.00
74524;BME280;63074;44.696;10.358;2023-03-14T18:53:34;98634.69;;;12.80;100.00
74524;BME280;63074;44.696;10.358;2023-03-14T18:56:01;98642.53;;;12.77;100.00
74524;BME280;63074;44.696;10.358;2023-03-14T18:58:27;98641.72;;;12.76;100.00
74524;BME280;63074;44.696;10.358;2023-03-14T19:01:01;98648.13;;;12.85;100.00
74524;BME280;63074;44.696;10.358;2023-03-14T19:03:29;98652.66;;;12.90;100.00
74524;BME280;63074;44.696;10.358;2023-03-14T19:05:56;98653.47;;;12.91;100.00
74524;BME280;63074;44.696;10.358;2023-03-14T19:08:24;98652.94;;;12.89;100.00
74524;BME280;63074;44.696;10.358;2023-03-14T19:10:52;98654.84;;;12.88;100.00
74524;BME280;63074;44.696;10.358;2023-03-14T19:13:21;98664.56;;;12.84;100.00
74524;BME280;63074;44.696;10.358;2023-03-14T19:15:47;98662.44;;;12.81;100.00
74524;BME280;63074;44.696;10.358;2023-03-14T19:18:14;98665.41;;;12.79;100.00
74524;BME280;63074;44.696;10.358;2023-03-14T19:20:40;98665.66;;;12.83;100.00
74524;BME280;63074;44.696;10.358;2023-03-14T19:23:07;98669.16;;;12.83;100.00
74524;BME280;63074;44.696;10.358;2023-03-14T19:25:35;98663.53;;;12.80;100.00
74524;BME280;63074;44.696;10.358;2023-03-14T19:28:01;98667.03;;;12.80;100.00
74524;BME280;63074;44.696;10.358;2023-03-14T19:30:27;98670.28;;;12.77;100.00
74524;BME280;63074;44.696;10.358;2023-03-14T19:32:55;98684.31;;;12.74;100.00
74524;BME280;63074;44.696;10.358;2023-03-14T19:35:21;98676.78;;;12.71;100.00
74524;BME280;63074;44.696;10.358;2023-03-14T19:37:47;98679.72;;;12.75;100.00
74524;BME280;63074;44.696;10.358;2023-03-14T19:40:13;98686.84;;;12.66;100.00
74524;BME280;63074;44.696;10.358;2023-03-14T19:42:39;98689.53;;;12.66;100.00
74524;BME280;63074;44.696;10.358;2023-03-14T19:45:06;98686.03;;;12.65;100.00
74524;BME280;63074;44.696;10.358;2023-03-14T19:47:32;98700.59;;;12.64;100.00
74524;BME280;63074;44.696;10.358;2023-03-14T19:49:58;98699.84;;;12.54;100.00
74524;BME280;63074;44.696;10.358;2023-03-14T19:52:25;98697.16;;;12.54;100.00
74524;BME280;63074;44.696;10.358;2023-03-14T19:54:51;98692.06;;;12.52;100.00
74524;BME280;63074;44.696;10.358;2023-03-14T19:57:18;98688.03;;;12.49;100.00
74524;BME280;63074;44.696;10.358;2023-03-14T19:59:44;98694.72;;;12.57;100.00
74524;BME280;63074;44.696;10.358;2023-03-14T20:02:13;98695.25;;;12.59;100.00
74524;BME280;63074;44.696;10.358;2023-03-14T20:04:41;98702.78;;;12.57;100.00
74524;BME280;63074;44.696;10.358;2023-03-14T20:07:10;98700.59;;;12.64;100.00